EST,Max TemperatureF,Mean TemperatureF,Min TemperatureF,Max Dew PointF,MeanDew PointF,Min DewpointF,Max Humidity, Mean Humidity, Min Humidity, Max Sea Level PressureIn, Mean Sea Level PressureIn, Min Sea Level PressureIn, Max VisibilityMiles, Mean VisibilityMiles, Min VisibilityMiles, Max Wind SpeedMPH, Mean Wind SpeedMPH, Max Gust SpeedMPH,PrecipitationIn, CloudCover, Events, WindDirDegrees
2012-11-1,,,,,,,,,,,,,,,,,,,,,,
2012-11-2,,,,,,,,,,,,,,,,,,,,,,
2012-11-3,,,,,,,,,,,,,,,,,,,,,,
2012-11-4,,,,,,,,,,,,,,,,,,,,,,
2012-11-5,,,,,,,,,,,,,,,,,,,,,,
2012-11-6,39,37,35,28,27,25,70,64,60,30.01,29.96,29.94,10,10,10,10,6,,0.00,8,,128
2012-11-7,48,38,30,30,27,25,87,66,46,30.16,30.09,29.98,10,10,10,12,6,,0.00,5,,104
2012-11-8,44,40,35,36,32,27,87,75,65,30.20,30.14,30.09,10,9,4,9,2,16,0.00,8,,192
2012-11-9,48,42,37,43,39,34,93,83,76,30.14,30.11,30.08,10,5,2,8,4,,0.03,8,,90
2012-11-10,64,54,44,48,42,37,87,74,52,30.10,29.98,29.85,10,6,2,17,9,34,0.03,6,,122
2012-11-11,66,58,51,54,48,45,88,62,52,29.92,29.84,29.73,10,9,3,24,14,41,0.25,5,,190
2012-11-12,51,40,28,48,26,12,88,71,47,30.20,29.98,29.81,10,9,2,24,14,31,0.10,8,,260
2012-11-13,35,30,26,21,19,16,80,62,52,30.48,30.40,30.21,10,10,10,20,11,26,0.00,4,,255
2012-11-14,42,34,26,28,23,21,80,67,52,30.51,30.46,30.38,10,10,10,13,4,18,0.00,4,,141
2012-11-15,48,38,30,34,29,21,93,72,53,30.38,30.34,30.30,10,8,1,13,5,17,0.00,3,,153
2012-11-16,46,35,24,36,28,21,100,82,57,30.49,30.44,30.35,10,6,0,10,3,,0.00,1,,66
2012-11-17,48,37,26,39,32,23,100,88,66,30.57,30.52,30.48,10,4,0,8,4,,0.00,4,,120
2012-11-18,55,42,30,32,28,25,93,65,33,30.50,30.43,30.36,10,9,4,12,6,18,0.00,0,,115
2012-11-19,51,40,28,36,31,25,93,69,47,30.36,30.25,30.12,10,9,5,8,5,,0.00,3,,111
2012-11-20,48,45,42,45,41,34,93,87,62,30.18,30.12,30.09,10,3,0,6,3,,0.04,8,,88
2012-11-21,53,46,39,45,42,37,100,85,67,30.20,30.13,30.02,7,4,0,10,3,18,0.00,4,,166
2012-11-22,62,54,46,46,41,37,82,62,42,30.02,29.84,29.62,10,9,3,20,10,30,0.00,3,,191
2012-11-23,53,42,30,46,24,18,86,64,55,30.07,29.83,29.61,10,9,1,32,21,41,0.00,8,,291
2012-11-24,30,29,28,19,18,16,69,62,55,30.15,30.09,29.95,10,10,10,21,13,31,0.00,8,,297
2012-11-25,33,30,26,28,23,18,93,71,55,30.00,29.86,29.79,10,8,1,20,8,25,0.12,8,,277
2012-11-26,30,29,26,18,16,12,69,59,47,30.31,30.18,30.00,10,10,10,15,11,22,0.00,8,,303
2012-11-27,35,30,24,23,17,12,74,63,44,30.34,30.26,30.15,10,10,4,15,6,24,0.00,4,,228
2012-11-28,35,29,23,27,20,16,86,65,52,30.29,30.22,30.15,10,9,1,17,12,25,0.00,5,,286
2012-11-29,44,38,32,32,28,25,81,66,56,30.20,30.18,30.13,10,10,8,18,9,24,0.00,5,,167
2012-11-30,35,34,33,30,28,27,81,76,70,30.26,30.21,30.18,10,10,7,17,12,24,0.00,8,,101